Time;durP1;ratioP1;P1;durP2;ratioP2;P2;SDS_P1;SDS_P2;PMS_P1;PMS_P2;Temp;Humidity;BMP_temperature;BMP_pressure;BME280_temperature;BME280_humidity;BME280_pressure;Samples;Min_cycle;Max_cycle;Signal;HPM_P1;HPM_P2
2023/01/26 00:00:58;;;;;;;55.70;28.50;;;;;;;2.68;80.00;101026.09;131224;1255;107434;-73
2023/01/26 00:04:04;;;;;;;52.20;26.40;;;;;;;2.72;80.02;101024.59;131352;1253;108489;-72
2023/01/26 00:07:10;;;;;;;53.10;28.60;;;;;;;2.74;79.97;101020.85;131289;1255;107436;-72
2023/01/26 00:10:16;;;;;;;52.90;27.60;;;;;;;2.73;79.88;101019.48;131328;1255;107266;-72
2023/01/26 00:13:21;;;;;;;59.90;30.40;;;;;;;2.71;79.87;101014.85;131287;1254;106698;-72
2023/01/26 00:16:28;;;;;;;60.00;31.80;;;;;;;2.61;79.81;101009.25;131219;1249;107510;-75
2023/01/26 00:19:33;;;;;;;58.40;30.90;;;;;;;2.56;79.85;101008.12;131215;1250;107583;-75
2023/01/26 00:22:39;;;;;;;58.70;30.30;;;;;;;2.55;79.94;101006.23;131237;1255;105523;-75
2023/01/26 00:25:44;;;;;;;59.70;31.00;;;;;;;2.54;79.96;101003.80;131001;1250;107511;-74
2023/01/26 00:28:51;;;;;;;63.40;30.50;;;;;;;2.53;79.85;101000.51;131166;1255;108664;-73
2023/01/26 00:31:57;;;;;;;56.80;28.70;;;;;;;2.53;80.01;100998.96;131320;1254;107698;-73
2023/01/26 00:35:03;;;;;;;58.40;29.10;;;;;;;2.53;80.04;100997.89;131018;1256;107532;-74
2023/01/26 00:38:09;;;;;;;48.10;24.20;;;;;;;2.55;80.18;100997.08;131113;1255;107691;-74
2023/01/26 00:44:35;;;;;;;53.60;27.20;;;;;;;2.64;80.18;100999.92;131353;1255;107410;-74
2023/01/26 00:47:41;;;;;;;57.00;29.90;;;;;;;2.70;80.26;100999.97;131276;1255;107497;-74
2023/01/26 00:50:46;;;;;;;61.90;30.70;;;;;;;2.73;80.20;100997.69;131182;1250;107227;-73
2023/01/26 00:53:52;;;;;;;62.00;30.60;;;;;;;2.73;79.89;100996.64;131294;1253;107538;-75
2023/01/26 00:56:57;;;;;;;69.10;31.20;;;;;;;2.73;79.95;100997.34;131074;1249;107237;-72
2023/01/26 01:00:05;;;;;;;62.90;30.20;;;;;;;2.72;79.72;100997.38;131285;1253;107542;-73
2023/01/26 01:03:10;;;;;;;58.70;28.50;;;;;;;2.69;79.88;100997.02;131324;1250;107630;-72
2023/01/26 01:06:16;;;;;;;60.10;29.40;;;;;;;2.63;79.85;100994.55;131201;1252;107536;-72
2023/01/26 01:09:22;;;;;;;57.90;28.00;;;;;;;2.62;80.01;100990.21;131153;1255;107552;-73
2023/01/26 01:12:28;;;;;;;58.70;29.70;;;;;;;2.62;80.11;100985.83;131174;1265;107598;-73
2023/01/26 01:15:33;;;;;;;59.20;29.30;;;;;;;2.60;79.92;100989.45;131088;1252;107470;-75
2023/01/26 01:18:39;;;;;;;61.60;29.70;;;;;;;2.61;80.10;100986.23;131250;1252;107568;-74
2023/01/26 01:21:45;;;;;;;49.90;24.10;;;;;;;2.62;80.06;100984.41;131268;1250;107317;-74
2023/01/26 01:24:52;;;;;;;54.50;27.20;;;;;;;2.66;80.27;100980.89;131391;1252;107448;-74
2023/01/26 01:27:57;;;;;;;59.40;28.50;;;;;;;2.71;80.05;100977.95;131244;1250;107343;-73
2023/01/26 01:31:05;;;;;;;54.70;28.20;;;;;;;2.77;79.88;100975.52;131342;1253;107526;-73
2023/01/26 01:34:11;;;;;;;57.50;28.80;;;;;;;2.79;79.69;100969.77;131311;1253;107528;-74
2023/01/26 01:37:17;;;;;;;54.00;28.50;;;;;;;2.80;79.80;100960.98;131230;1255;107535;-74
2023/01/26 01:40:23;;;;;;;57.00;29.20;;;;;;;2.78;79.89;100957.91;131198;1250;107409;-74
2023/01/26 01:43:29;;;;;;;58.40;27.90;;;;;;;2.71;79.85;100955.46;131112;1255;107581;-74
2023/01/26 01:46:37;;;;;;;54.70;28.20;;;;;;;2.68;79.92;100954.55;131050;1250;107631;-74
2023/01/26 01:49:46;;;;;;;50.80;27.10;;;;;;;2.64;80.01;100947.96;131247;1255;107516;-73
2023/01/26 01:52:54;;;;;;;57.90;29.60;;;;;;;2.61;80.07;100941.27;131346;1255;107530;-74
2023/01/26 01:56:04;;;;;;;53.00;28.60;;;;;;;2.59;80.06;100936.66;131303;1255;108538;-73
2023/01/26 01:59:11;;;;;;;59.40;29.70;;;;;;;2.55;80.24;100937.55;131371;1253;107502;-75
2023/01/26 02:02:17;;;;;;;55.80;28.00;;;;;;;2.54;80.06;100932.50;131388;1253;107550;-74
2023/01/26 02:05:31;;;;;;;47.10;23.90;;;;;;;2.54;80.10;100932.88;131287;1249;107422;-74
2023/01/26 02:08:40;;;;;;;49.30;26.30;;;;;;;2.55;80.01;100923.84;131221;1253;107456;-73
2023/01/26 02:11:47;;;;;;;51.30;27.00;;;;;;;2.61;79.89;100918.63;131090;1253;107445;-73
2023/01/26 02:14:56;;;;;;;57.30;28.00;;;;;;;2.65;80.16;100916.11;131247;1252;107459;-74
2023/01/26 02:18:05;;;;;;;56.70;28.10;;;;;;;2.67;80.06;100921.08;131103;1255;107432;-74
2023/01/26 02:21:13;;;;;;;59.00;28.60;;;;;;;2.66;80.10;100912.55;131308;1253;107857;-72
2023/01/26 02:24:26;;;;;;;53.80;27.90;;;;;;;2.65;79.86;100904.33;131347;1254;107478;-72
2023/01/26 02:27:31;;;;;;;57.00;27.30;;;;;;;2.64;79.98;100904.20;131312;1250;107550;-74
2023/01/26 02:30:38;;;;;;;74.10;34.60;;;;;;;2.64;79.96;100899.28;131136;1254;107275;-72
2023/01/26 02:33:44;;;;;;;73.90;33.70;;;;;;;2.62;80.02;100896.06;131334;1256;106558;-72
2023/01/26 02:36:59;;;;;;;64.60;31.40;;;;;;;2.60;79.93;100890.73;131233;1254;107510;-75
2023/01/26 02:40:14;;;;;;;72.30;34.10;;;;;;;2.56;79.99;100885.02;131152;1253;107392;-74
2023/01/26 02:43:19;;;;;;;59.50;28.70;;;;;;;2.52;79.99;100879.73;131073;1254;107424;-74
2023/01/26 02:46:25;;;;;;;50.20;25.00;;;;;;;2.52;80.11;100880.43;131118;1249;107175;-74
2023/01/26 02:49:50;;;;;;;57.90;27.80;;;;;;;2.59;80.09;100882.52;131047;1254;107470;-74
2023/01/26 02:52:57;;;;;;;63.50;30.60;;;;;;;2.63;79.87;100873.86;130997;1253;107543;-74
2023/01/26 02:56:03;;;;;;;87.20;40.40;;;;;;;2.67;79.97;100869.81;131231;1253;107349;-73
2023/01/26 02:59:08;;;;;;;80.30;38.10;;;;;;;2.68;79.99;100871.11;131334;1250;107312;-73
2023/01/26 03:02:14;;;;;;;63.20;30.70;;;;;;;2.68;80.11;100867.98;131258;1254;107873;-73
2023/01/26 03:05:20;;;;;;;58.40;28.50;;;;;;;2.68;79.86;100866.75;131165;1253;107511;-74
2023/01/26 03:08:26;;;;;;;64.70;31.70;;;;;;;2.65;79.94;100857.81;131192;1254;107505;-74
2023/01/26 03:11:40;;;;;;;56.30;28.30;;;;;;;2.60;79.98;100851.23;131270;1251;107230;-74
2023/01/26 03:15:33;;;;;;;55.20;28.00;;;;;;;2.58;80.15;100845.21;131205;1253;107502;-75
2023/01/26 03:28:25;;;;;;;49.00;24.80;;;;;;;2.51;80.19;100840.14;131302;1263;107521;-74
2023/01/26 03:31:31;;;;;;;56.00;28.20;;;;;;;2.56;80.18;100837.05;131336;1256;108722;-73
2023/01/26 03:34:37;;;;;;;60.40;29.20;;;;;;;2.60;79.96;100834.36;131208;1253;107578;-73
2023/01/26 03:37:43;;;;;;;52.90;28.30;;;;;;;2.63;79.95;100825.79;131096;1250;108606;-73
2023/01/26 03:57:56;;;;;;;55.40;28.10;;;;;;;2.54;79.99;100797.27;131165;1256;107985;-73
2023/01/26 04:01:01;;;;;;;60.20;29.50;;;;;;;2.53;80.07;100796.64;131170;1249;107217;-73
2023/01/26 04:10:57;;;;;;;47.70;23.90;;;;;;;2.44;80.17;100794.15;131220;1253;107512;-74
2023/01/26 04:24:16;;;;;;;53.40;26.70;;;;;;;2.57;80.13;100796.05;131033;1256;107380;-74
2023/01/26 04:27:22;;;;;;;51.90;26.00;;;;;;;2.55;79.94;100790.03;131031;1253;109080;-74
2023/01/26 04:30:27;;;;;;;53.60;27.30;;;;;;;2.54;80.20;100790.98;131178;1253;107401;-74
2023/01/26 04:33:33;;;;;;;56.10;28.50;;;;;;;2.51;80.12;100789.38;131101;1253;109111;-74
2023/01/26 04:36:39;;;;;;;56.60;27.70;;;;;;;2.50;80.20;100790.48;131109;1253;107534;-74
2023/01/26 04:39:45;;;;;;;56.20;27.30;;;;;;;2.49;80.24;100786.52;131181;1252;107519;-74
2023/01/26 04:42:51;;;;;;;56.00;27.50;;;;;;;2.47;80.22;100786.98;131075;1253;107521;-73
2023/01/26 04:46:01;;;;;;;54.20;27.20;;;;;;;2.45;80.26;100792.39;131176;1264;107330;-74
2023/01/26 04:49:09;;;;;;;60.70;29.60;;;;;;;2.45;80.20;100789.01;131010;1254;107724;-74
2023/01/26 04:52:14;;;;;;;51.30;25.70;;;;;;;2.49;80.32;100790.73;131120;1250;107568;-74
2023/01/26 04:55:20;;;;;;;53.90;28.10;;;;;;;2.53;80.16;100792.38;131263;1253;107429;-73
2023/01/26 04:58:26;;;;;;;54.30;27.90;;;;;;;2.58;80.12;100794.27;131305;1254;106625;-73
2023/01/26 05:01:33;;;;;;;56.20;29.10;;;;;;;2.60;80.11;100797.15;131295;1253;107504;-74
2023/01/26 05:04:39;;;;;;;53.00;27.80;;;;;;;2.61;80.12;100793.73;131365;1254;108647;-74
2023/01/26 05:07:49;;;;;;;51.70;27.70;;;;;;;2.61;80.14;100786.89;131052;1254;108573;-74
2023/01/26 05:10:55;;;;;;;50.90;26.90;;;;;;;2.58;80.15;100784.58;131121;1254;107432;-75
2023/01/26 05:14:04;;;;;;;52.90;27.50;;;;;;;2.58;80.13;100782.30;131275;1260;107615;-75
2023/01/26 05:17:27;;;;;;;50.40;26.50;;;;;;;2.57;80.15;100780.64;131047;1256;107423;-75
2023/01/26 05:20:41;;;;;;;50.00;25.20;;;;;;;2.56;80.33;100783.84;131112;1254;107494;-75
2023/01/26 05:24:01;;;;;;;53.60;26.50;;;;;;;2.54;80.35;100780.23;131327;1253;107468;-75
2023/01/26 05:27:22;;;;;;;53.90;26.20;;;;;;;2.53;80.20;100780.50;131230;1253;107460;-75
2023/01/26 05:30:31;;;;;;;53.50;26.40;;;;;;;2.50;80.07;100778.02;131189;1250;107215;-75
2023/01/26 05:33:38;;;;;;;52.20;24.60;;;;;;;2.49;80.32;100777.56;131290;1252;107520;-74
2023/01/26 05:36:45;;;;;;;53.00;25.80;;;;;;;2.53;80.34;100767.84;131258;1256;107667;-74
2023/01/26 05:39:50;;;;;;;52.40;25.80;;;;;;;2.59;80.45;100763.64;131337;1254;107526;-73
2023/01/26 05:42:56;;;;;;;52.60;26.90;;;;;;;2.64;80.44;100766.34;131130;1254;107461;-74
2023/01/26 05:46:27;;;;;;;65.10;30.80;;;;;;;2.66;80.23;100765.29;130937;1263;107486;-73
2023/01/26 05:49:33;;;;;;;59.70;28.80;;;;;;;2.68;80.10;100767.86;131077;1255;109404;-74
2023/01/26 05:52:39;;;;;;;56.50;27.80;;;;;;;2.64;80.08;100762.83;131207;1253;107501;-73
2023/01/26 05:55:46;;;;;;;53.90;27.40;;;;;;;2.60;80.18;100759.56;131211;1250;107599;-73
2023/01/26 05:58:52;;;;;;;55.10;26.80;;;;;;;2.58;80.21;100759.32;131185;1253;107437;-77
2023/01/26 06:01:58;;;;;;;54.80;28.30;;;;;;;2.56;80.43;100762.41;131118;1253;107512;-76
2023/01/26 06:05:06;;;;;;;59.70;30.70;;;;;;;2.53;80.31;100765.01;131154;1256;107684;-76
2023/01/26 06:08:11;;;;;;;57.30;27.90;;;;;;;2.52;80.13;100762.65;131021;1255;107552;-77
2023/01/26 06:11:32;;;;;;;57.00;27.50;;;;;;;2.48;80.26;100756.23;131018;1254;107533;-76
2023/01/26 06:14:54;;;;;;;58.80;28.30;;;;;;;2.45;80.43;100755.83;131071;1253;107529;-76
2023/01/26 06:18:02;;;;;;;46.30;22.90;;;;;;;2.46;80.40;100763.86;131046;1254;107457;-74
2023/01/26 06:21:07;;;;;;;104.80;43.70;;;;;;;2.50;80.42;100767.50;131104;1255;107527;-74
2023/01/26 06:24:13;;;;;;;100.20;44.00;;;;;;;2.57;80.41;100765.67;131121;1256;107283;-74
2023/01/26 06:27:19;;;;;;;88.80;42.10;;;;;;;2.63;80.41;100762.50;131365;1255;107580;-74
2023/01/26 06:30:27;;;;;;;63.60;31.60;;;;;;;2.65;80.36;100761.15;131229;1255;107653;-74
2023/01/26 06:33:38;;;;;;;57.80;28.30;;;;;;;2.67;80.25;100764.59;131083;1254;106627;-74
2023/01/26 06:36:45;;;;;;;54.80;29.10;;;;;;;2.67;80.21;100759.29;131029;1262;107563;-75
2023/01/26 06:39:58;;;;;;;54.40;26.40;;;;;;;2.62;80.23;100747.80;131329;1253;107536;-75
2023/01/26 06:43:03;;;;;;;53.20;27.50;;;;;;;2.61;80.16;100751.23;131185;1255;107550;-74
2023/01/26 06:46:11;;;;;;;53.60;27.80;;;;;;;2.59;80.31;100749.55;131040;1254;107551;-74
2023/01/26 06:49:17;;;;;;;55.80;29.00;;;;;;;2.59;80.42;100750.27;131135;1253;107663;-74
2023/01/26 06:52:30;;;;;;;58.00;28.20;;;;;;;2.56;80.02;100751.00;131165;1256;107513;-74
2023/01/26 06:55:41;;;;;;;59.60;29.10;;;;;;;2.54;80.34;100751.64;131070;1256;107462;-75
2023/01/26 06:59:13;;;;;;;56.60;26.50;;;;;;;2.57;80.25;100756.58;131308;1253;107754;-74
2023/01/26 07:02:32;;;;;;;;;;;;;;;2.61;80.33;100756.35;131106;1253;107473;-74
2023/01/26 07:05:37;;;;;;;50.20;26.10;;;;;;;2.66;80.28;100752.84;131017;1254;108762;-75
2023/01/26 07:08:43;;;;;;;57.70;28.50;;;;;;;2.69;80.32;100756.70;131164;1253;107311;-74
2023/01/26 07:11:48;;;;;;;54.50;28.60;;;;;;;2.72;80.32;100758.11;131231;1253;107697;-74
2023/01/26 07:14:54;;;;;;;55.20;28.20;;;;;;;2.73;80.21;100752.27;131233;1253;107592;-74
2023/01/26 07:18:00;;;;;;;56.90;29.50;;;;;;;2.75;80.26;100753.55;131563;1255;108697;-74
2023/01/26 07:21:07;;;;;;;53.40;28.30;;;;;;;2.76;80.24;100748.08;131443;1263;107568;-72
2023/01/26 07:24:13;;;;;;;53.30;28.00;;;;;;;2.77;80.22;100749.79;131362;1262;107502;-73
2023/01/26 07:27:19;;;;;;;53.50;28.10;;;;;;;2.73;80.06;100753.15;131045;1263;106805;-73
2023/01/26 07:30:25;;;;;;;55.40;27.60;;;;;;;2.72;80.06;100749.85;131096;1263;107568;-73
2023/01/26 07:33:31;;;;;;;60.00;30.10;;;;;;;2.73;80.06;100746.98;131108;1263;107409;-72
2023/01/26 07:36:37;;;;;;;75.00;35.50;;;;;;;2.75;80.20;100741.81;131231;1255;107506;-72
2023/01/26 07:39:42;;;;;;;70.40;35.30;;;;;;;2.79;80.25;100737.71;131322;1251;107677;-72
2023/01/26 07:42:48;;;;;;;61.50;32.30;;;;;;;2.86;80.20;100734.64;131156;1251;106406;-72
2023/01/26 07:46:19;;;;;;;58.50;30.50;;;;;;;2.94;80.01;100735.38;131191;1256;107730;-72
2023/01/26 07:49:25;;;;;;;80.20;42.60;;;;;;;2.99;79.82;100731.06;131004;1254;107546;-72
2023/01/26 07:52:30;;;;;;;80.80;43.50;;;;;;;3.04;79.93;100730.59;131078;1256;107219;-73
2023/01/26 07:55:36;;;;;;;64.40;33.90;;;;;;;3.08;79.72;100730.35;131102;1255;105648;-73
2023/01/26 07:58:42;;;;;;;63.80;33.80;;;;;;;3.10;79.76;100732.66;131306;1254;107560;-76
2023/01/26 08:01:50;;;;;;;73.20;41.70;;;;;;;3.13;79.89;100730.04;131142;1263;107441;-73
2023/01/26 08:04:55;;;;;;;65.40;36.00;;;;;;;3.13;79.60;100728.05;130984;1251;107476;-74
2023/01/26 08:08:01;;;;;;;64.30;35.70;;;;;;;3.10;79.73;100725.44;130971;1265;105887;-74
2023/01/26 08:11:07;;;;;;;63.90;34.80;;;;;;;3.06;79.69;100731.13;131145;1253;107475;-75
2023/01/26 08:14:13;;;;;;;57.00;30.20;;;;;;;3.05;79.70;100728.26;131166;1251;107537;-73
2023/01/26 08:17:19;;;;;;;59.30;32.20;;;;;;;3.03;79.75;100735.55;131278;1251;105798;-75
2023/01/26 08:20:24;;;;;;;51.60;26.10;;;;;;;3.05;79.67;100734.91;131108;1254;107517;-73
2023/01/26 08:23:30;;;;;;;45.70;25.00;;;;;;;3.09;79.67;100734.14;131056;1251;107519;-73
2023/01/26 08:26:35;;;;;;;47.90;26.20;;;;;;;3.17;79.65;100734.88;131087;1253;107498;-74
2023/01/26 08:29:41;;;;;;;51.60;25.90;;;;;;;3.23;79.50;100731.88;131039;1251;107606;-73
2023/01/26 08:32:46;;;;;;;44.10;24.10;;;;;;;3.26;79.35;100734.84;131127;1251;108859;-74
2023/01/26 08:35:52;;;;;;;45.40;23.80;;;;;;;3.29;79.43;100736.75;131093;1256;107291;-73
2023/01/26 08:38:58;;;;;;;45.50;25.60;;;;;;;3.34;79.34;100732.61;131303;1253;108678;-74
2023/01/26 08:42:03;;;;;;;44.40;24.90;;;;;;;3.37;79.18;100730.14;131367;1253;107268;-72
2023/01/26 08:45:10;;;;;;;49.00;26.80;;;;;;;3.40;79.34;100733.79;131313;1254;107677;-71
2023/01/26 08:48:17;;;;;;;42.70;22.90;;;;;;;3.44;79.04;100738.01;131079;1251;107543;-76
2023/01/26 08:51:22;;;;;;;40.80;23.20;;;;;;;3.42;78.84;100738.60;131263;1253;107621;-73
2023/01/26 08:54:28;;;;;;;40.90;22.90;;;;;;;3.40;78.98;100744.75;131421;1255;106572;-71
2023/01/26 08:57:33;;;;;;;42.40;22.00;;;;;;;3.38;78.85;100750.34;131252;1251;107504;-74
2023/01/26 09:00:39;;;;;;;41.50;22.10;;;;;;;3.38;79.13;100747.14;131229;1256;105692;-76
2023/01/26 09:03:45;;;;;;;98.90;37.10;;;;;;;3.39;78.92;100742.13;131229;1251;107444;-73
2023/01/26 09:06:51;;;;;;;45.70;22.70;;;;;;;3.41;78.86;100743.60;131332;1253;107244;-73
2023/01/26 09:09:56;;;;;;;38.30;20.20;;;;;;;3.42;78.68;100745.45;131537;1251;107508;-74
2023/01/26 09:13:02;;;;;;;52.20;26.60;;;;;;;3.43;78.64;100752.78;131185;1254;107557;-74
2023/01/26 09:16:15;;;;;;;34.30;18.80;;;;;;;3.48;78.63;100750.74;131411;1254;107458;-74
2023/01/26 09:19:21;;;;;;;55.50;28.80;;;;;;;3.54;78.52;100754.05;131443;1254;107445;-72
2023/01/26 09:22:27;;;;;;;39.60;21.80;;;;;;;3.62;78.55;100762.73;131246;1251;107349;-74
2023/01/26 09:25:35;;;;;;;38.80;22.00;;;;;;;3.65;78.42;100758.29;131289;1251;106567;-73
2023/01/26 09:28:41;;;;;;;70.20;35.00;;;;;;;3.69;78.30;100756.97;131080;1254;108110;-76
2023/01/26 09:31:46;;;;;;;48.70;24.80;;;;;;;3.67;78.30;100753.92;131222;1250;107498;-75
2023/01/26 09:34:52;;;;;;;37.60;21.50;;;;;;;3.65;78.17;100752.50;131090;1251;106645;-72
2023/01/26 09:37:58;;;;;;;39.70;22.20;;;;;;;3.63;78.18;100749.27;131091;1254;107559;-73
2023/01/26 09:41:10;;;;;;;47.00;24.10;;;;;;;3.65;78.15;100743.02;131267;1254;106822;-74
2023/01/26 09:44:23;;;;;;;42.40;22.10;;;;;;;3.64;77.94;100738.15;131010;1256;107365;-71
2023/01/26 09:47:31;;;;;;;;;;;;;;;3.62;77.95;100732.97;131031;1251;107453;-74
2023/01/26 09:50:46;;;;;;;39.80;22.20;;;;;;;3.65;77.93;100731.73;131253;1250;107522;-75
2023/01/26 09:53:57;;;;;;;40.00;23.30;;;;;;;3.64;77.82;100730.05;131394;1250;107543;-78
2023/01/26 09:57:10;;;;;;;39.50;21.80;;;;;;;3.66;77.94;100721.48;131121;1254;109001;-78
2023/01/26 10:00:22;;;;;;;38.40;21.20;;;;;;;3.70;77.90;100714.89;131077;1251;108593;-76
2023/01/26 10:03:34;;;;;;;39.20;22.60;;;;;;;3.72;77.76;100714.92;131243;1254;107537;-73
2023/01/26 10:06:40;;;;;;;37.50;21.40;;;;;;;3.69;77.58;100719.84;131189;1253;107349;-73
2023/01/26 10:09:53;;;;;;;37.60;21.90;;;;;;;3.68;77.67;100714.66;131141;1253;107423;-77
2023/01/26 10:12:59;;;;;;;34.80;20.00;;;;;;;3.70;77.65;100707.83;131114;1256;107522;-74
2023/01/26 10:16:10;;;;;;;34.10;18.80;;;;;;;3.72;77.55;100706.81;131142;1251;107542;-74
2023/01/26 10:19:21;;;;;;;31.80;18.20;;;;;;;3.73;77.48;100701.70;131276;1254;107531;-81
2023/01/26 10:22:36;;;;;;;32.70;18.30;;;;;;;3.78;77.21;100703.61;131645;1250;107632;-82
2023/01/26 10:25:45;;;;;;;32.30;18.90;;;;;;;3.83;77.01;100701.72;131405;1248;107244;-78
2023/01/26 10:28:52;;;;;;;36.40;20.10;;;;;;;3.87;77.18;100698.13;131277;1255;107531;-79
2023/01/26 10:31:58;;;;;;;35.00;20.00;;;;;;;3.93;77.01;100691.23;131113;1251;107425;-78
2023/01/26 10:35:04;;;;;;;37.30;21.30;;;;;;;3.96;76.74;100691.05;131166;1251;107586;-76
2023/01/26 10:38:38;;;;;;;36.20;20.70;;;;;;;3.95;76.63;100689.73;131306;1251;108487;-76
2023/01/26 10:41:58;;;;;;;37.50;20.30;;;;;;;3.93;76.50;100687.50;131207;1250;106484;-76
2023/01/26 10:45:06;;;;;;;36.70;19.90;;;;;;;3.91;76.52;100682.19;131480;1250;107380;-76
2023/01/26 10:48:19;;;;;;;32.40;18.60;;;;;;;3.90;76.36;100677.50;131129;1254;108660;-75
2023/01/26 10:51:29;;;;;;;34.30;19.70;;;;;;;3.84;76.14;100678.09;131088;1254;107382;-76
2023/01/26 10:54:35;;;;;;;34.60;18.90;;;;;;;3.79;76.39;100673.17;131191;1251;107487;-76
2023/01/26 10:57:42;;;;;;;29.60;18.30;;;;;;;3.75;76.02;100669.50;131278;1251;108575;-76
2023/01/26 11:00:56;;;;;;;32.20;18.80;;;;;;;3.71;75.84;100666.44;131470;1250;107499;-75
2023/01/26 11:04:07;;;;;;;30.70;18.40;;;;;;;3.66;75.87;100657.40;132518;1253;107507;-77
2023/01/26 11:07:28;;;;;;;33.00;19.40;;;;;;;3.68;76.35;100647.27;131431;1251;107621;-73
2023/01/26 11:10:35;;;;;;;31.40;18.40;;;;;;;3.68;76.03;100641.08;131267;1251;107549;-74
2023/01/26 11:13:41;;;;;;;34.80;19.30;;;;;;;3.67;76.18;100637.46;131165;1254;107565;-75
2023/01/26 11:16:50;;;;;;;34.00;20.20;;;;;;;3.68;75.84;100633.41;131140;1251;107434;-73
2023/01/26 11:20:10;;;;;;;34.90;20.60;;;;;;;3.66;75.81;100633.65;131094;1249;107431;-73
2023/01/26 11:23:24;;;;;;;41.90;22.70;;;;;;;3.63;75.59;100632.96;131187;1251;107394;-73
2023/01/26 11:26:48;;;;;;;35.60;20.70;;;;;;;3.59;75.76;100628.36;131297;1250;107259;-73
2023/01/26 11:30:16;;;;;;;34.20;19.50;;;;;;;3.57;75.70;100628.11;131414;1255;107549;-74
2023/01/26 11:33:29;;;;;;;36.40;21.10;;;;;;;3.53;75.50;100625.88;131299;1254;109014;-74
2023/01/26 11:36:46;;;;;;;36.90;20.90;;;;;;;3.55;75.61;100620.16;131363;1264;106769;-74
2023/01/26 11:40:03;;;;;;;34.10;19.80;;;;;;;3.58;75.80;100613.96;131103;1263;108633;-73
2023/01/26 11:43:27;;;;;;;32.40;20.10;;;;;;;3.65;75.72;100608.27;131301;1251;107244;-72
2023/01/26 11:46:49;;;;;;;35.70;20.70;;;;;;;3.72;75.70;100607.58;131422;1261;107735;-74
2023/01/26 11:50:10;;;;;;;36.10;20.50;;;;;;;3.74;75.34;100603.91;131273;1253;105560;-77
2023/01/26 11:53:37;;;;;;;34.80;20.20;;;;;;;3.81;75.49;100602.79;131321;1251;107467;-75
2023/01/26 11:56:49;;;;;;;36.20;19.70;;;;;;;3.83;75.24;100594.55;130972;1257;107969;-74
2023/01/26 11:59:57;;;;;;;;;;;;;;;3.85;75.14;100598.50;131312;1253;107578;-72
2023/01/26 12:03:05;;;;;;;41.10;21.70;;;;;;;3.90;75.01;100595.48;131245;1252;107679;-73
2023/01/26 12:06:19;;;;;;;48.10;25.80;;;;;;;3.90;75.12;100591.24;131328;1250;107530;-73
2023/01/26 12:09:33;;;;;;;36.70;21.60;;;;;;;3.94;75.03;100592.60;131256;1254;107504;-73
2023/01/26 12:12:46;;;;;;;36.60;20.30;;;;;;;3.97;74.93;100588.23;131127;1254;106881;-73
2023/01/26 12:15:56;;;;;;;34.30;19.70;;;;;;;3.99;74.68;100580.52;131149;1254;108559;-74
2023/01/26 12:19:08;;;;;;;36.00;21.40;;;;;;;3.99;74.85;100578.71;131048;1254;107343;-73
2023/01/26 12:22:19;;;;;;;35.90;21.10;;;;;;;4.02;74.72;100576.20;131302;1253;107543;-74
2023/01/26 12:25:32;;;;;;;34.70;19.80;;;;;;;4.02;74.59;100581.34;131161;1254;107591;-75
2023/01/26 12:28:44;;;;;;;33.60;19.80;;;;;;;4.03;74.84;100583.37;131070;1254;106411;-74
2023/01/26 12:31:57;;;;;;;35.70;20.60;;;;;;;4.05;74.55;100587.45;131484;1254;107542;-75
2023/01/26 12:35:03;;;;;;;37.80;20.20;;;;;;;4.04;74.15;100579.27;131335;1254;107298;-76
2023/01/26 12:38:14;;;;;;;36.10;20.30;;;;;;;3.98;73.97;100582.67;131188;1253;107535;-75
2023/01/26 12:41:28;;;;;;;33.60;20.00;;;;;;;3.91;74.01;100586.48;131094;1263;107556;-73
2023/01/26 12:44:40;;;;;;;34.10;19.90;;;;;;;3.82;73.94;100588.29;131285;1254;107516;-75
2023/01/26 12:47:51;;;;;;;35.00;20.90;;;;;;;3.78;74.28;100590.13;131404;1254;107516;-75
2023/01/26 12:51:02;;;;;;;34.50;20.30;;;;;;;3.79;74.32;100585.86;131283;1250;107491;-71
2023/01/26 12:54:20;;;;;;;32.20;18.90;;;;;;;3.78;74.19;100582.21;131059;1255;107532;-74
2023/01/26 12:57:33;;;;;;;34.00;19.30;;;;;;;3.74;74.28;100581.40;131019;1254;108661;-72
2023/01/26 13:00:38;;;;;;;;;;;;;;;3.70;73.99;100576.09;131348;1249;107336;-73
2023/01/26 13:03:45;;;;;;;31.70;18.40;;;;;;;3.66;74.00;100577.24;131215;1253;108645;-72
2023/01/26 13:07:03;;;;;;;34.30;19.50;;;;;;;3.61;74.20;100576.14;131242;1251;106506;-74
2023/01/26 13:10:20;;;;;;;33.50;18.60;;;;;;;3.58;74.24;100573.87;131348;1251;107256;-73
2023/01/26 13:13:32;;;;;;;33.70;19.50;;;;;;;3.57;74.03;100572.55;131296;1250;107553;-74
2023/01/26 13:16:37;;;;;;;36.00;20.60;;;;;;;3.57;74.13;100574.98;131139;1254;107815;-73
2023/01/26 13:19:58;;;;;;;33.20;19.40;;;;;;;3.58;74.08;100572.78;131126;1254;107519;-75
2023/01/26 13:23:26;;;;;;;31.90;19.60;;;;;;;3.59;73.95;100574.69;131094;1254;107386;-72
2023/01/26 13:26:52;;;;;;;32.80;19.50;;;;;;;3.59;74.14;100572.61;131265;1253;105803;-77
2023/01/26 13:29:58;;;;;;;35.40;20.10;;;;;;;3.58;73.92;100574.40;131248;1250;107229;-75
2023/01/26 13:33:11;;;;;;;34.60;20.20;;;;;;;3.54;73.82;100568.98;131106;1253;107371;-75
2023/01/26 13:36:20;;;;;;;32.80;19.10;;;;;;;3.53;73.88;100565.89;131186;1249;107574;-75
2023/01/26 13:39:31;;;;;;;33.00;19.60;;;;;;;3.54;73.96;100560.05;131060;1256;107592;-76
2023/01/26 13:42:47;;;;;;;32.80;19.40;;;;;;;3.54;73.90;100562.33;131056;1255;107539;-75
2023/01/26 13:46:00;;;;;;;32.30;20.10;;;;;;;3.54;73.55;100561.10;131130;1250;107397;-76
2023/01/26 13:49:23;;;;;;;35.20;20.60;;;;;;;3.52;73.80;100559.77;131161;1254;107437;-76
2023/01/26 13:52:29;;;;;;;31.80;19.10;;;;;;;3.52;73.57;100557.36;131110;1254;107562;-77
2023/01/26 13:55:41;;;;;;;33.80;19.70;;;;;;;3.49;73.67;100561.08;131234;1253;107445;-76
2023/01/26 13:58:46;;;;;;;31.90;19.40;;;;;;;3.49;73.67;100562.14;131336;1250;107388;-74
2023/01/26 14:01:53;;;;;;;40.60;21.60;;;;;;;3.52;73.74;100558.96;131436;1250;106474;-73
2023/01/26 14:04:59;;;;;;;185.50;49.60;;;;;;;3.51;73.74;100557.08;131123;1252;107226;-74
2023/01/26 14:08:06;;;;;;;276.80;82.80;;;;;;;3.48;73.72;100552.49;131034;1253;106684;-72
2023/01/26 14:11:19;;;;;;;518.20;198.40;;;;;;;3.48;73.49;100558.69;131230;1251;107904;-71
2023/01/26 14:14:27;;;;;;;509.50;204.50;;;;;;;3.45;73.55;100558.13;131114;1249;107557;-71
2023/01/26 14:17:35;;;;;;;278.20;105.10;;;;;;;3.43;73.51;100554.96;131247;1250;107569;-71
2023/01/26 14:20:42;;;;;;;79.10;36.80;;;;;;;3.42;73.48;100553.61;131075;1253;107545;-75
2023/01/26 14:23:55;;;;;;;50.30;26.60;;;;;;;3.38;73.49;100550.92;131152;1251;107238;-73
2023/01/26 14:27:02;;;;;;;38.10;21.50;;;;;;;3.35;73.40;100548.95;131106;1249;106502;-73
2023/01/26 14:33:43;;;;;;;158.30;53.10;;;;;;;3.38;73.36;100558.27;127720;1289;635845;-72
2023/01/26 14:36:48;;;;;;;162.50;62.30;;;;;;;3.42;73.44;100558.53;130095;1265;108617;-73
2023/01/26 14:40:18;;;;;;;137.40;53.20;;;;;;;3.49;73.38;100555.62;130283;1279;108415;-72
2023/01/26 14:43:25;;;;;;;108.60;43.50;;;;;;;3.55;73.32;100546.42;130180;1266;107250;-71
2023/01/26 14:46:37;;;;;;;132.90;47.10;;;;;;;3.59;73.35;100538.45;130011;1281;145546;-70
2023/01/26 14:49:48;;;;;;;474.50;153.90;;;;;;;3.59;73.11;100536.35;130356;1266;107393;-70
2023/01/26 14:52:54;;;;;;;135.20;48.40;;;;;;;3.57;73.13;100534.88;130918;1256;108202;-69
2023/01/26 14:56:00;;;;;;;804.70;313.60;;;;;;;3.56;73.18;100532.50;130933;1275;107541;-74
2023/01/26 14:59:07;;;;;;;227.00;79.40;;;;;;;3.53;73.07;100530.92;130946;1255;107459;-71
2023/01/26 15:02:19;;;;;;;100.20;38.20;;;;;;;3.49;73.09;100527.11;131004;1253;107525;-71